createdAt,value
2018-03-31T00:00:11.939Z,99.90
2018-03-31T00:02:39.697Z,99.90
2018-03-31T00:05:06.666Z,99.90
2018-03-31T00:07:33.644Z,99.90
2018-03-31T00:10:00.671Z,99.80
2018-03-31T00:12:27.630Z,99.80
2018-03-31T00:14:54.626Z,99.80
2018-03-31T00:17:22.375Z,99.70
2018-03-31T00:19:49.353Z,99.70
2018-03-31T00:22:30.976Z,99.70
2018-03-31T00:24:57.953Z,99.70
2018-03-31T00:27:24.946Z,99.60
2018-03-31T00:29:51.918Z,99.70
2018-03-31T00:32:18.917Z,99.70
2018-03-31T00:34:45.902Z,99.80
2018-03-31T00:37:12.891Z,99.90
2018-03-31T00:39:39.879Z,99.70
2018-03-31T00:42:06.862Z,99.70
2018-03-31T00:44:33.840Z,99.70
2018-03-31T00:47:00.837Z,99.70
2018-03-31T00:49:27.829Z,99.70
2018-03-31T00:51:54.806Z,99.60
2018-03-31T00:54:21.801Z,99.60
2018-03-31T00:56:48.798Z,99.60
2018-03-31T00:59:15.801Z,99.60
2018-03-31T01:01:42.783Z,99.60
2018-03-31T01:04:09.766Z,99.50
2018-03-31T01:06:36.795Z,99.50
2018-03-31T01:09:03.793Z,99.50
2018-03-31T01:11:30.805Z,99.40
2018-03-31T01:13:57.792Z,99.40
2018-03-31T01:16:24.789Z,99.40
2018-03-31T01:18:52.538Z,99.40
2018-03-31T01:21:19.520Z,99.40
2018-03-31T01:23:46.530Z,99.50
2018-03-31T01:26:13.499Z,99.40
2018-03-31T01:28:40.484Z,99.50
2018-03-31T01:31:07.471Z,99.50
2018-03-31T01:33:34.451Z,99.60
2018-03-31T01:36:01.448Z,99.70
2018-03-31T01:38:28.435Z,99.80
2018-03-31T01:40:55.425Z,99.90
2018-03-31T01:43:23.169Z,99.90
2018-03-31T01:45:50.135Z,99.90
2018-03-31T01:48:17.131Z,99.90
2018-03-31T01:50:44.116Z,99.90
2018-03-31T01:53:11.103Z,99.90
2018-03-31T01:55:38.089Z,99.90
2018-03-31T01:58:05.060Z,99.90
2018-03-31T02:00:32.053Z,99.90
2018-03-31T02:02:59.041Z,99.90
2018-03-31T02:05:26.010Z,99.90
2018-03-31T02:07:52.981Z,99.90
2018-03-31T02:10:19.970Z,99.90
2018-03-31T02:12:47.728Z,99.90
2018-03-31T02:15:14.694Z,99.90
2018-03-31T02:17:42.443Z,99.90
2018-03-31T02:20:09.411Z,99.90
2018-03-31T02:22:36.396Z,99.90
2018-03-31T02:25:03.376Z,99.90
2018-03-31T02:27:30.353Z,99.90
2018-03-31T02:29:57.331Z,99.90
2018-03-31T02:32:25.068Z,99.90
2018-03-31T02:34:52.039Z,99.90
2018-03-31T02:37:19.135Z,99.90
2018-03-31T02:39:46.124Z,99.90
2018-03-31T02:42:13.100Z,99.90
2018-03-31T02:44:40.074Z,99.90
2018-03-31T02:47:07.820Z,99.90
2018-03-31T02:49:34.823Z,99.90
2018-03-31T02:52:01.810Z,99.90
2018-03-31T02:54:28.796Z,99.90
2018-03-31T02:56:56.530Z,99.90
2018-03-31T02:59:23.512Z,99.90
2018-03-31T03:01:51.265Z,99.90
2018-03-31T03:04:18.240Z,99.90
2018-03-31T03:06:45.971Z,99.90
2018-03-31T03:09:12.970Z,99.90
2018-03-31T03:11:40.711Z,99.90
2018-03-31T03:14:07.691Z,99.90
2018-03-31T03:16:35.435Z,99.70
2018-03-31T03:19:02.429Z,99.70
2018-03-31T03:21:29.392Z,99.80
2018-03-31T03:23:56.364Z,99.90
2018-03-31T03:26:23.447Z,99.90
2018-03-31T03:28:50.425Z,99.90
2018-03-31T03:31:18.183Z,99.90
2018-03-31T03:33:45.149Z,99.90
2018-03-31T03:36:12.886Z,99.90
2018-03-31T03:38:39.873Z,99.90
2018-03-31T03:41:06.851Z,99.90
2018-03-31T03:43:33.834Z,99.90
2018-03-31T03:46:00.807Z,99.90
2018-03-31T03:48:27.781Z,99.90
2018-03-31T03:50:55.529Z,99.90
2018-03-31T03:53:22.504Z,99.90
2018-03-31T03:55:49.491Z,99.90
2018-03-31T03:58:16.456Z,99.90
2018-03-31T04:00:43.430Z,99.90
2018-03-31T04:03:10.426Z,99.90
2018-03-31T04:05:37.401Z,99.90
2018-03-31T04:08:04.387Z,99.90
2018-03-31T04:10:31.365Z,99.90
2018-03-31T04:12:59.100Z,99.90
2018-03-31T04:15:26.084Z,99.90
2018-03-31T04:17:53.839Z,99.90
2018-03-31T04:20:20.821Z,99.90
2018-03-31T04:22:47.804Z,99.90
2018-03-31T04:25:14.779Z,99.90
2018-03-31T04:27:41.772Z,99.90
2018-03-31T04:30:09.528Z,99.90
2018-03-31T04:32:37.267Z,99.90
2018-03-31T04:35:04.243Z,99.90
2018-03-31T04:37:31.982Z,99.90
2018-03-31T04:39:58.973Z,99.90
2018-03-31T04:42:26.715Z,99.90
2018-03-31T04:44:53.700Z,99.90
2018-03-31T04:47:21.449Z,99.90
2018-03-31T04:49:48.435Z,99.90
2018-03-31T04:52:16.193Z,99.90
2018-03-31T04:54:43.964Z,99.90
2018-03-31T04:57:11.706Z,99.90
2018-03-31T04:59:38.694Z,99.90
2018-03-31T05:02:06.441Z,99.90
2018-03-31T05:04:33.431Z,99.90
2018-03-31T05:07:00.482Z,99.90
2018-03-31T05:09:27.441Z,99.90
2018-03-31T05:11:54.455Z,99.80
2018-03-31T05:14:21.408Z,99.90
2018-03-31T05:16:48.405Z,99.90
2018-03-31T05:19:15.391Z,99.90
2018-03-31T05:21:42.364Z,99.90
2018-03-31T05:24:10.105Z,99.90
2018-03-31T05:26:37.095Z,99.90
2018-03-31T05:29:04.856Z,99.70
2018-03-31T05:31:32.613Z,99.70
2018-03-31T05:33:59.610Z,99.70
2018-03-31T05:36:26.584Z,99.90
2018-03-31T05:38:53.572Z,99.90
2018-03-31T05:41:20.576Z,99.80
2018-03-31T05:43:47.560Z,99.80
2018-03-31T05:46:15.301Z,99.50
2018-03-31T05:48:42.282Z,99.50
2018-03-31T05:51:10.026Z,99.60
2018-03-31T05:53:37.065Z,99.30
2018-03-31T05:56:04.043Z,99.30
2018-03-31T05:58:31.026Z,99.10
2018-03-31T06:00:58.021Z,99.10
2018-03-31T06:03:25.003Z,98.80
2018-03-31T06:05:51.987Z,99.00
2018-03-31T06:08:18.975Z,99.10
2018-03-31T06:10:45.961Z,99.10
2018-03-31T06:13:12.930Z,99.10
2018-03-31T06:15:39.938Z,99.10
2018-03-31T06:18:06.947Z,99.10
2018-03-31T06:20:33.924Z,98.90
2018-03-31T06:23:01.674Z,98.70
2018-03-31T06:25:28.664Z,98.70
2018-03-31T06:27:55.648Z,98.60
2018-03-31T06:30:22.651Z,98.60
2018-03-31T06:32:50.405Z,98.60
2018-03-31T06:35:17.384Z,98.60
2018-03-31T06:37:44.364Z,98.50
2018-03-31T06:40:11.350Z,98.50
2018-03-31T06:42:38.361Z,98.50
2018-03-31T06:45:05.332Z,98.70
2018-03-31T06:47:32.329Z,98.60
2018-03-31T06:50:00.089Z,98.40
2018-03-31T06:52:27.080Z,98.40
2018-03-31T06:54:54.085Z,98.20
2018-03-31T06:57:21.080Z,98.20
2018-03-31T06:59:48.058Z,98.00
2018-03-31T07:02:15.044Z,97.80
2018-03-31T07:04:42.033Z,97.60
2018-03-31T07:07:09.032Z,97.50
2018-03-31T07:09:36.008Z,97.30
2018-03-31T07:12:02.991Z,97.00
2018-03-31T07:14:29.978Z,97.00
2018-03-31T07:16:56.976Z,96.70
2018-03-31T07:19:24.759Z,96.70
2018-03-31T07:21:52.500Z,96.60
2018-03-31T07:24:19.488Z,96.50
2018-03-31T07:26:47.227Z,96.50
2018-03-31T07:29:14.214Z,96.80
2018-03-31T07:31:41.214Z,96.50
2018-03-31T07:34:08.211Z,96.50
2018-03-31T07:36:35.200Z,96.30
2018-03-31T07:39:02.174Z,96.50
2018-03-31T07:41:29.157Z,96.30
2018-03-31T07:43:56.912Z,95.90
2018-03-31T07:46:23.889Z,95.90
2018-03-31T07:48:51.630Z,95.00
2018-03-31T07:51:18.617Z,94.90
2018-03-31T07:53:45.599Z,94.70
2018-03-31T07:56:12.596Z,94.40
2018-03-31T07:58:40.352Z,94.10
2018-03-31T08:01:07.338Z,93.70
2018-03-31T08:03:35.085Z,93.10
2018-03-31T08:06:02.062Z,93.10
2018-03-31T08:08:29.817Z,92.60
2018-03-31T08:10:57.593Z,93.70
2018-03-31T08:13:25.337Z,93.70
2018-03-31T08:15:52.321Z,93.70
2018-03-31T08:18:20.070Z,94.20
2018-03-31T08:20:47.064Z,94.20
2018-03-31T08:23:14.036Z,94.30
2018-03-31T08:25:41.032Z,94.70
2018-03-31T08:28:08.008Z,94.60
2018-03-31T08:30:35.013Z,94.70
2018-03-31T08:33:02.021Z,94.40
2018-03-31T08:35:29.010Z,94.40
2018-03-31T08:37:55.990Z,94.40
2018-03-31T08:40:22.973Z,94.50
2018-03-31T08:42:50.712Z,94.00
2018-03-31T08:45:17.722Z,94.00
2018-03-31T08:47:44.695Z,93.70
2018-03-31T08:50:11.682Z,93.70
2018-03-31T08:52:39.428Z,92.70
2018-03-31T08:55:06.412Z,92.60
2018-03-31T08:57:34.186Z,92.90
2018-03-31T09:00:01.920Z,92.70
2018-03-31T09:02:28.907Z,92.70
2018-03-31T09:04:56.642Z,91.70
2018-03-31T09:07:23.616Z,91.70
2018-03-31T09:09:51.381Z,92.30
2018-03-31T09:12:18.344Z,92.30
2018-03-31T09:14:46.089Z,91.50
2018-03-31T09:17:13.071Z,91.50
2018-03-31T09:19:40.811Z,90.40
2018-03-31T09:22:07.806Z,90.30
2018-03-31T09:24:34.784Z,90.40
2018-03-31T09:27:01.754Z,89.40
2018-03-31T09:29:28.736Z,89.50
2018-03-31T09:31:55.711Z,89.40
2018-03-31T09:34:22.708Z,90.10
2018-03-31T09:36:50.448Z,90.00
2018-03-31T09:39:17.427Z,88.90
2018-03-31T09:41:44.399Z,89.20
2018-03-31T09:44:11.384Z,88.80
2018-03-31T09:46:39.210Z,90.30
2018-03-31T09:49:06.909Z,90.70
2018-03-31T09:51:33.884Z,90.60
2018-03-31T09:54:00.868Z,90.50
2018-03-31T09:56:27.840Z,90.50
2018-03-31T09:58:54.826Z,90.30
2018-03-31T10:01:22.572Z,90.00
2018-03-31T10:03:49.551Z,90.00
2018-03-31T10:06:17.287Z,91.00
2018-03-31T10:08:44.264Z,90.90
2018-03-31T10:11:12.031Z,91.00
2018-03-31T10:13:39.020Z,91.00
2018-03-31T10:16:05.989Z,90.70
2018-03-31T10:18:32.973Z,90.30
2018-03-31T10:20:59.934Z,89.50
2018-03-31T10:23:26.952Z,90.20
2018-03-31T10:25:53.945Z,90.70
2018-03-31T10:28:20.924Z,90.10
2018-03-31T10:30:47.907Z,90.30
2018-03-31T10:33:15.637Z,90.50
2018-03-31T10:35:43.394Z,88.10
2018-03-31T10:38:11.139Z,87.30
2018-03-31T10:40:38.129Z,87.10
2018-03-31T10:43:05.876Z,88.50
2018-03-31T10:45:32.855Z,88.40
2018-03-31T10:48:00.613Z,84.80
2018-03-31T10:50:28.348Z,84.00
2018-03-31T10:52:55.341Z,84.00
2018-03-31T10:55:23.083Z,81.40
2018-03-31T10:57:50.064Z,81.40
2018-03-31T11:00:17.860Z,81.00
2018-03-31T11:02:45.715Z,80.00
2018-03-31T11:05:12.689Z,80.10
2018-03-31T11:07:39.673Z,78.10
2018-03-31T11:10:06.648Z,78.60
2018-03-31T11:12:33.632Z,78.60
2018-03-31T11:15:00.694Z,78.00
2018-03-31T11:17:27.667Z,74.10
2018-03-31T11:19:54.644Z,71.40
2018-03-31T11:22:21.623Z,72.30
2018-03-31T11:24:49.393Z,70.20
2018-03-31T11:27:17.145Z,68.80
2018-03-31T11:29:44.111Z,68.80
2018-03-31T11:32:11.859Z,69.70
2018-03-31T11:34:38.824Z,69.70
2018-03-31T11:37:05.819Z,68.90
2018-03-31T11:39:32.800Z,68.40
2018-03-31T11:41:59.790Z,67.70
2018-03-31T11:44:27.532Z,67.30
2018-03-31T11:46:54.537Z,67.20
2018-03-31T11:49:21.526Z,65.80
2018-03-31T11:51:48.499Z,65.90
2018-03-31T11:54:15.469Z,65.20
2018-03-31T11:56:42.439Z,63.90
2018-03-31T11:59:09.420Z,63.40
2018-03-31T12:01:36.410Z,61.60
2018-03-31T12:04:03.376Z,61.50
2018-03-31T12:06:30.374Z,61.50
2018-03-31T12:08:57.352Z,63.00
2018-03-31T12:11:24.316Z,62.10
2018-03-31T12:13:51.301Z,62.20
2018-03-31T12:16:19.039Z,64.50
2018-03-31T12:18:46.006Z,64.50
2018-03-31T12:21:13.742Z,64.70
2018-03-31T12:23:40.724Z,64.60
2018-03-31T12:26:07.704Z,65.70
2018-03-31T12:28:36.777Z,65.70
2018-03-31T12:31:03.905Z,66.00
2018-03-31T12:33:31.658Z,64.60
2018-03-31T12:35:58.638Z,64.60
2018-03-31T12:38:25.647Z,64.40
2018-03-31T12:40:52.626Z,66.10
2018-03-31T12:43:19.615Z,65.50
2018-03-31T12:45:46.601Z,66.40
2018-03-31T12:48:13.578Z,62.00
2018-03-31T12:50:40.570Z,61.60
2018-03-31T12:53:07.549Z,64.00
2018-03-31T12:55:34.519Z,62.80
2018-03-31T12:58:01.493Z,61.50
2018-03-31T13:00:28.468Z,60.70
2018-03-31T13:02:55.459Z,59.80
2018-03-31T13:05:22.436Z,60.30
2018-03-31T13:07:49.406Z,56.50
2018-03-31T13:10:16.382Z,58.20
2018-03-31T13:12:43.357Z,57.80
2018-03-31T13:15:11.120Z,57.70
2018-03-31T13:17:38.091Z,57.00
2018-03-31T13:20:05.074Z,55.70
2018-03-31T13:22:32.054Z,56.50
2018-03-31T13:24:59.023Z,57.20
2018-03-31T13:27:26.015Z,55.80
2018-03-31T13:29:52.984Z,56.20
2018-03-31T13:32:19.962Z,55.80
2018-03-31T13:34:46.948Z,54.10
2018-03-31T13:37:14.687Z,53.50
2018-03-31T13:39:41.711Z,53.50
2018-03-31T13:42:08.688Z,53.50
2018-03-31T13:44:35.668Z,54.70
2018-03-31T13:47:03.422Z,56.10
2018-03-31T13:49:30.407Z,55.40
2018-03-31T13:51:58.163Z,55.60
2018-03-31T13:54:25.921Z,56.10
2018-03-31T13:56:52.916Z,56.10
2018-03-31T13:59:20.638Z,53.80
2018-03-31T14:01:47.619Z,53.80
2018-03-31T14:04:15.386Z,50.60
2018-03-31T14:06:43.137Z,51.10
2018-03-31T14:09:10.104Z,51.10
2018-03-31T14:11:37.842Z,52.60
2018-03-31T14:14:04.813Z,52.50
2018-03-31T14:16:31.827Z,51.30
2018-03-31T14:18:58.801Z,51.40
2018-03-31T14:21:25.791Z,51.20
2018-03-31T14:23:53.551Z,49.00
2018-03-31T14:26:21.293Z,49.20
2018-03-31T14:28:48.273Z,49.20
2018-03-31T14:31:16.007Z,50.20
2018-03-31T14:33:42.985Z,50.10
2018-03-31T14:36:09.964Z,50.00
2018-03-31T14:38:36.939Z,48.20
2018-03-31T14:41:03.927Z,48.30
2018-03-31T14:43:30.928Z,48.00
2018-03-31T14:45:57.900Z,47.60
2018-03-31T14:48:24.937Z,49.00
2018-03-31T14:50:51.918Z,49.00
2018-03-31T14:53:18.912Z,49.40
2018-03-31T14:55:46.665Z,49.80
2018-03-31T14:58:14.497Z,49.80
2018-03-31T15:00:41.483Z,49.80
2018-03-31T15:03:08.460Z,49.00
2018-03-31T15:05:36.212Z,49.20
2018-03-31T15:08:03.189Z,49.20
2018-03-31T15:10:30.941Z,49.30
2018-03-31T15:12:57.905Z,49.40
2018-03-31T15:15:25.649Z,49.10
2018-03-31T15:17:52.634Z,49.10
2018-03-31T15:20:20.393Z,50.40
2018-03-31T15:22:47.362Z,50.40
2018-03-31T15:25:15.096Z,50.10
2018-03-31T15:27:42.070Z,50.10
2018-03-31T15:30:09.829Z,48.70
2018-03-31T15:32:36.817Z,48.70
2018-03-31T15:35:03.804Z,49.60
2018-03-31T15:37:30.783Z,49.50
2018-03-31T15:39:57.788Z,50.20
2018-03-31T15:42:24.764Z,50.60
2018-03-31T15:44:51.744Z,51.90
2018-03-31T15:47:18.721Z,51.40
2018-03-31T15:49:46.490Z,51.10
2018-03-31T15:52:14.237Z,50.90
2018-03-31T15:54:41.228Z,50.70
2018-03-31T15:57:08.203Z,50.10
2018-03-31T15:59:35.198Z,50.80
2018-03-31T16:02:02.170Z,50.90
2018-03-31T16:04:29.909Z,50.60
2018-03-31T16:06:56.901Z,50.50
2018-03-31T16:09:23.869Z,51.00
2018-03-31T16:11:50.837Z,51.40
2018-03-31T16:14:17.817Z,52.60
2018-03-31T16:16:44.799Z,52.50
2018-03-31T16:19:12.550Z,51.70
2018-03-31T16:21:39.646Z,51.50
2018-03-31T16:24:06.629Z,51.20
2018-03-31T16:26:33.623Z,51.70
2018-03-31T16:29:01.364Z,51.60
2018-03-31T16:31:28.374Z,51.60
2018-03-31T16:33:55.353Z,51.60
2018-03-31T16:36:22.341Z,51.90
2018-03-31T16:38:49.305Z,51.20
2018-03-31T16:41:17.056Z,51.90
2018-03-31T16:43:44.051Z,51.90
2018-03-31T16:46:11.025Z,52.20
2018-03-31T16:48:38.011Z,51.90
2018-03-31T16:51:04.975Z,51.00
2018-03-31T16:53:32.720Z,50.60
2018-03-31T16:55:59.718Z,50.60
2018-03-31T16:58:26.711Z,50.60
2018-03-31T17:00:53.689Z,50.90
2018-03-31T17:03:20.658Z,51.40
2018-03-31T17:05:48.406Z,52.00
2018-03-31T17:08:15.404Z,52.00
2018-03-31T17:10:42.384Z,52.90
2018-03-31T17:13:09.365Z,52.80
2018-03-31T17:15:36.353Z,52.70
2018-03-31T17:18:03.336Z,52.40
2018-03-31T17:20:30.347Z,52.90
2018-03-31T17:22:58.125Z,53.20
2018-03-31T17:25:25.862Z,53.50
2018-03-31T17:27:52.832Z,53.50
2018-03-31T17:30:20.609Z,53.00
2018-03-31T17:32:47.591Z,53.00
2018-03-31T17:35:14.575Z,53.30
2018-03-31T17:37:41.552Z,53.60
2018-03-31T17:40:08.547Z,54.00
2018-03-31T17:42:35.516Z,54.10
2018-03-31T17:45:02.516Z,53.70
2018-03-31T17:47:29.492Z,53.60
2018-03-31T17:49:56.474Z,53.60
2018-03-31T17:52:23.459Z,53.60
2018-03-31T17:54:50.438Z,54.10
2018-03-31T17:57:17.515Z,54.50
2018-03-31T17:59:44.509Z,54.70
2018-03-31T18:02:11.496Z,55.00
2018-03-31T18:04:39.248Z,56.60
2018-03-31T18:07:06.235Z,56.60
2018-03-31T18:09:33.220Z,57.00
2018-03-31T18:12:00.208Z,57.30
2018-03-31T18:14:27.190Z,57.60
2018-03-31T18:16:54.169Z,57.90
2018-03-31T18:19:21.142Z,58.30
2018-03-31T18:21:48.197Z,58.60
2018-03-31T18:24:15.124Z,58.80
2018-03-31T18:26:42.106Z,59.10
2018-03-31T18:29:09.092Z,59.40
2018-03-31T18:31:36.840Z,59.50
2018-03-31T18:34:03.838Z,59.40
2018-03-31T18:36:30.823Z,59.40
2018-03-31T18:38:57.846Z,59.50
2018-03-31T18:41:25.558Z,59.70
2018-03-31T18:43:52.531Z,59.60
2018-03-31T18:46:20.292Z,59.80
2018-03-31T18:48:47.288Z,59.80
2018-03-31T18:51:14.267Z,60.20
2018-03-31T18:53:42.024Z,60.70
2018-03-31T18:56:09.012Z,60.60
2018-03-31T18:58:36.024Z,60.90
2018-03-31T19:01:02.991Z,61.20
2018-03-31T19:03:29.991Z,61.40
2018-03-31T19:05:57.757Z,62.10
2018-03-31T19:08:25.505Z,62.40
2018-03-31T19:10:52.541Z,62.40
2018-03-31T19:13:19.495Z,63.20
2018-03-31T19:15:47.253Z,64.10
2018-03-31T19:18:14.245Z,64.10
2018-03-31T19:20:41.233Z,64.70
2018-03-31T19:23:08.246Z,65.00
2018-03-31T19:25:35.252Z,65.90
2018-03-31T19:28:02.233Z,66.80
2018-03-31T19:30:34.818Z,67.40
2018-03-31T19:33:01.806Z,67.70
2018-03-31T19:35:44.452Z,69.10
2018-03-31T19:38:11.448Z,69.10
2018-03-31T19:40:38.433Z,68.60
2018-03-31T19:43:06.178Z,69.80
2018-03-31T19:45:33.174Z,69.80
2018-03-31T19:48:00.193Z,70.00
2018-03-31T19:50:28.001Z,70.00
2018-03-31T19:52:54.970Z,70.00
2018-03-31T19:55:21.944Z,70.30
2018-03-31T19:57:48.924Z,70.40
2018-03-31T20:00:16.699Z,70.80
2018-03-31T20:02:44.440Z,71.10
2018-03-31T20:05:11.420Z,71.10
2018-03-31T20:07:38.430Z,71.00
2018-03-31T20:10:05.407Z,71.30
2018-03-31T20:12:32.422Z,71.80
2018-03-31T20:14:59.391Z,72.00
2018-03-31T20:17:26.378Z,72.20
2018-03-31T20:19:54.121Z,72.60
2018-03-31T20:22:21.099Z,72.50
2018-03-31T20:24:48.871Z,73.10
2018-03-31T20:27:15.858Z,73.10
2018-03-31T20:29:42.837Z,73.40
2018-03-31T20:32:09.816Z,73.50
2018-03-31T20:34:37.585Z,74.00
2018-03-31T20:37:05.380Z,74.80
2018-03-31T20:39:32.373Z,74.20
2018-03-31T20:41:59.365Z,74.60
2018-03-31T20:44:27.165Z,75.60
2018-03-31T20:46:54.174Z,75.60
2018-03-31T20:49:21.160Z,76.10
2018-03-31T20:51:48.162Z,76.60
2018-03-31T20:54:15.149Z,77.10
2018-03-31T20:56:42.901Z,77.40
2018-03-31T20:59:09.887Z,77.30
2018-03-31T21:01:36.908Z,77.60
2018-03-31T21:04:03.888Z,77.80
2018-03-31T21:06:31.640Z,76.70
2018-03-31T21:08:59.391Z,76.20
2018-03-31T21:11:26.383Z,76.10
2018-03-31T21:13:53.401Z,76.30
2018-03-31T21:16:20.382Z,75.60
2018-03-31T21:18:48.127Z,75.10
2018-03-31T21:21:15.104Z,75.10
2018-03-31T21:23:42.876Z,75.30
2018-03-31T21:26:10.631Z,75.60
2018-03-31T21:28:37.611Z,75.60
2018-03-31T21:31:04.607Z,76.00
2018-03-31T21:33:31.581Z,74.60
2018-03-31T21:35:58.577Z,74.30
2018-03-31T21:38:25.571Z,73.90
2018-03-31T21:40:52.539Z,73.80
2018-03-31T21:43:19.518Z,73.60
2018-03-31T21:45:47.262Z,73.00
2018-03-31T21:48:14.233Z,73.10
2018-03-31T21:50:42.022Z,72.40
2018-03-31T21:53:09.006Z,72.30
2018-03-31T21:55:35.985Z,72.10
2018-03-31T21:58:02.963Z,72.30
2018-03-31T22:00:30.728Z,73.00
2018-03-31T22:02:58.505Z,73.30
2018-03-31T22:05:26.264Z,73.30
2018-03-31T22:07:53.261Z,73.30
2018-03-31T22:10:20.246Z,73.80
2018-03-31T22:12:47.229Z,74.80
2018-03-31T22:15:20.587Z,75.90
2018-03-31T22:17:47.565Z,75.90
2018-03-31T22:20:14.534Z,76.90
2018-03-31T22:22:42.296Z,77.90
2018-03-31T22:25:09.283Z,77.90
2018-03-31T22:27:36.268Z,77.80
2018-03-31T22:30:04.017Z,77.60
2018-03-31T22:32:31.004Z,77.50
2018-03-31T22:34:58.001Z,77.80
2018-03-31T22:37:24.974Z,78.00
2018-03-31T22:39:51.969Z,78.30
2018-03-31T22:42:18.955Z,78.80
2018-03-31T22:44:45.945Z,78.90
2018-03-31T22:47:12.917Z,79.20
2018-03-31T22:49:39.882Z,80.20
2018-03-31T22:52:06.878Z,81.90
2018-03-31T22:54:33.857Z,83.30
2018-03-31T22:57:01.020Z,83.60
2018-03-31T22:59:27.996Z,84.00
2018-03-31T23:01:54.967Z,83.50
2018-03-31T23:04:21.968Z,83.10
2018-03-31T23:06:48.949Z,83.10
2018-03-31T23:09:15.923Z,83.00
2018-03-31T23:11:43.657Z,83.50
2018-03-31T23:14:10.630Z,83.40
2018-03-31T23:16:37.628Z,83.40
2018-03-31T23:19:04.603Z,85.30
2018-03-31T23:21:32.342Z,86.50
2018-03-31T23:23:59.326Z,86.50
2018-03-31T23:26:26.306Z,87.20
2018-03-31T23:28:53.308Z,87.60
2018-03-31T23:31:20.290Z,87.70
2018-03-31T23:33:47.268Z,87.90
2018-03-31T23:36:14.246Z,88.80
2018-03-31T23:38:41.217Z,88.50
2018-03-31T23:41:08.212Z,88.80
2018-03-31T23:43:35.205Z,89.40
2018-03-31T23:46:02.172Z,89.50
2018-03-31T23:48:29.141Z,90.10
2018-03-31T23:50:56.112Z,90.20
2018-03-31T23:53:23.119Z,90.40
2018-03-31T23:55:50.092Z,91.00
2018-03-31T23:58:17.069Z,90.80
